sensor_id;sensor_type;location;lat;lon;timestamp;pressure;altitude;pressure_sealevel;temperature;humidity
58769;BME280;44536;47.474;19.056;2023-04-01T00:00:00;99126.34;;;8.22;100.00
58769;BME280;44536;47.474;19.056;2023-04-01T00:03:12;99123.13;;;8.18;100.00
58769;BME280;44536;47.474;19.056;2023-04-01T00:06:17;99128.12;;;8.21;100.00
58769;BME280;44536;47.474;19.056;2023-04-01T00:09:19;99120.22;;;8.21;100.00
58769;BME280;44536;47.474;19.056;2023-04-01T00:12:22;99122.56;;;8.15;100.00
58769;BME280;44536;47.474;19.056;2023-04-01T00:15:27;99124.94;;;8.18;100.00
58769;BME280;44536;47.474;19.056;2023-04-01T00:18:30;99119.81;;;8.26;100.00
58769;BME280;44536;47.474;19.056;2023-04-01T00:21:32;99114.16;;;8.30;100.00
58769;BME280;44536;47.474;19.056;2023-04-01T00:24:35;99117.00;;;8.18;100.00
58769;BME280;44536;47.474;19.056;2023-04-01T00:27:37;99121.66;;;8.05;100.00
58769;BME280;44536;47.474;19.056;2023-04-01T00:30:40;99120.75;;;8.15;100.00
58769;BME280;44536;47.474;19.056;2023-04-01T00:33:42;99115.41;;;8.06;100.00
58769;BME280;44536;47.474;19.056;2023-04-01T00:36:45;99115.66;;;8.03;100.00
58769;BME280;44536;47.474;19.056;2023-04-01T00:39:47;99107.22;;;8.09;100.00
58769;BME280;44536;47.474;19.056;2023-04-01T00:42:50;99104.59;;;8.09;100.00
58769;BME280;44536;47.474;19.056;2023-04-01T00:45:53;99109.81;;;7.99;100.00
58769;BME280;44536;47.474;19.056;2023-04-01T00:48:56;99103.69;;;7.98;100.00
58769;BME280;44536;47.474;19.056;2023-04-01T00:52:00;99093.19;;;8.08;100.00
58769;BME280;44536;47.474;19.056;2023-04-01T00:55:05;99097.25;;;8.12;100.00
58769;BME280;44536;47.474;19.056;2023-04-01T00:58:14;99097.50;;;8.09;100.00
58769;BME280;44536;47.474;19.056;2023-04-01T01:01:20;99101.13;;;8.08;100.00
58769;BME280;44536;47.474;19.056;2023-04-01T01:04:29;99100.19;;;8.19;100.00
58769;BME280;44536;47.474;19.056;2023-04-01T01:10:48;99104.63;;;8.18;100.00
58769;BME280;44536;47.474;19.056;2023-04-01T01:24:37;99093.41;;;8.26;100.00
58769;BME280;44536;47.474;19.056;2023-04-01T01:27:51;99086.06;;;8.29;100.00
58769;BME280;44536;47.474;19.056;2023-04-01T01:34:47;99085.13;;;8.40;100.00
58769;BME280;44536;47.474;19.056;2023-04-01T01:37:58;99082.91;;;8.36;100.00
58769;BME280;44536;47.474;19.056;2023-04-01T01:41:04;99087.34;;;8.35;100.00
58769;BME280;44536;47.474;19.056;2023-04-01T01:44:08;99089.28;;;8.33;100.00
58769;BME280;44536;47.474;19.056;2023-04-01T01:47:13;99088.56;;;8.31;100.00
58769;BME280;44536;47.474;19.056;2023-04-01T01:50:18;99086.25;;;8.38;100.00
58769;BME280;44536;47.474;19.056;2023-04-01T01:53:21;99083.03;;;8.34;100.00
58769;BME280;44536;47.474;19.056;2023-04-01T01:56:26;99079.03;;;8.40;100.00
58769;BME280;44536;47.474;19.056;2023-04-01T01:59:31;99084.44;;;8.38;100.00
58769;BME280;44536;47.474;19.056;2023-04-01T02:02:35;99091.44;;;8.49;100.00
58769;BME280;44536;47.474;19.056;2023-04-01T02:05:38;99080.44;;;8.44;100.00
58769;BME280;44536;47.474;19.056;2023-04-01T02:11:58;99083.38;;;8.50;100.00
58769;BME280;44536;47.474;19.056;2023-04-01T02:15:09;99083.94;;;8.54;100.00
58769;BME280;44536;47.474;19.056;2023-04-01T02:18:15;99077.94;;;8.52;100.00
58769;BME280;44536;47.474;19.056;2023-04-01T02:21:20;99073.91;;;8.48;100.00
58769;BME280;44536;47.474;19.056;2023-04-01T02:24:26;99076.94;;;8.43;100.00
58769;BME280;44536;47.474;19.056;2023-04-01T02:27:30;99074.19;;;8.45;100.00
58769;BME280;44536;47.474;19.056;2023-04-01T02:30:35;99069.59;;;8.47;100.00
58769;BME280;44536;47.474;19.056;2023-04-01T02:33:39;99069.59;;;8.47;100.00
58769;BME280;44536;47.474;19.056;2023-04-01T02:36:42;99069.19;;;8.51;100.00
58769;BME280;44536;47.474;19.056;2023-04-01T02:39:44;99069.59;;;8.47;100.00
58769;BME280;44536;47.474;19.056;2023-04-01T02:42:47;99061.41;;;8.50;100.00
58769;BME280;44536;47.474;19.056;2023-04-01T02:45:49;99055.34;;;8.69;100.00
58769;BME280;44536;47.474;19.056;2023-04-01T02:48:52;99058.13;;;8.77;100.00
58769;BME280;44536;47.474;19.056;2023-04-01T02:51:55;99064.22;;;8.68;100.00
58769;BME280;44536;47.474;19.056;2023-04-01T02:54:58;99063.78;;;8.62;100.00
58769;BME280;44536;47.474;19.056;2023-04-01T02:58:01;99064.75;;;8.52;100.00
58769;BME280;44536;47.474;19.056;2023-04-01T03:01:03;99077.25;;;8.50;100.00
58769;BME280;44536;47.474;19.056;2023-04-01T03:04:06;99069.44;;;8.39;100.00
58769;BME280;44536;47.474;19.056;2023-04-01T03:07:09;99063.13;;;8.30;100.00
58769;BME280;44536;47.474;19.056;2023-04-01T03:10:12;99068.38;;;8.20;100.00
58769;BME280;44536;47.474;19.056;2023-04-01T03:13:14;99069.13;;;8.02;100.00
58769;BME280;44536;47.474;19.056;2023-04-01T03:16:17;99063.44;;;8.06;100.00
58769;BME280;44536;47.474;19.056;2023-04-01T03:19:20;99061.06;;;8.03;100.00
58769;BME280;44536;47.474;19.056;2023-04-01T03:22:22;99063.31;;;8.08;100.00
58769;BME280;44536;47.474;19.056;2023-04-01T03:25:25;99057.63;;;8.12;100.00
58769;BME280;44536;47.474;19.056;2023-04-01T03:28:27;99067.62;;;8.09;100.00
58769;BME280;44536;47.474;19.056;2023-04-01T03:31:29;99081.28;;;8.14;100.00
58769;BME280;44536;47.474;19.056;2023-04-01T03:34:32;99083.16;;;8.33;100.00
58769;BME280;44536;47.474;19.056;2023-04-01T03:37:35;99083.16;;;8.33;100.00
58769;BME280;44536;47.474;19.056;2023-04-01T03:40:37;99080.09;;;8.27;100.00
58769;BME280;44536;47.474;19.056;2023-04-01T03:43:44;99093.47;;;8.36;100.00
58769;BME280;44536;47.474;19.056;2023-04-01T03:46:46;99077.63;;;8.36;100.00
58769;BME280;44536;47.474;19.056;2023-04-01T03:49:49;99089.38;;;8.22;100.00
58769;BME280;44536;47.474;19.056;2023-04-01T03:52:52;99083.38;;;8.20;100.00
58769;BME280;44536;47.474;19.056;2023-04-01T03:55:54;99094.22;;;8.17;100.00
58769;BME280;44536;47.474;19.056;2023-04-01T03:58:58;99094.78;;;8.20;100.00
58769;BME280;44536;47.474;19.056;2023-04-01T04:02:00;99094.37;;;8.25;100.00
58769;BME280;44536;47.474;19.056;2023-04-01T04:05:03;99085.81;;;8.33;100.00
58769;BME280;44536;47.474;19.056;2023-04-01T04:08:07;99098.38;;;8.19;100.00
58769;BME280;44536;47.474;19.056;2023-04-01T04:11:10;99093.69;;;8.23;100.00
58769;BME280;44536;47.474;19.056;2023-04-01T04:14:13;99097.59;;;8.28;100.00
58769;BME280;44536;47.474;19.056;2023-04-01T04:17:15;99096.84;;;8.17;100.00
58769;BME280;44536;47.474;19.056;2023-04-01T04:20:18;99095.25;;;8.05;100.00
58769;BME280;44536;47.474;19.056;2023-04-01T04:23:21;99091.22;;;8.01;100.00
58769;BME280;44536;47.474;19.056;2023-04-01T04:26:23;99087.72;;;8.00;100.00
58769;BME280;44536;47.474;19.056;2023-04-01T04:29:26;99089.41;;;8.01;100.00
58769;BME280;44536;47.474;19.056;2023-04-01T04:32:29;99092.69;;;7.93;100.00
58769;BME280;44536;47.474;19.056;2023-04-01T04:35:32;99086.31;;;7.96;100.00
58769;BME280;44536;47.474;19.056;2023-04-01T04:38:35;99080.78;;;7.99;100.00
58769;BME280;44536;47.474;19.056;2023-04-01T04:41:38;99083.16;;;8.02;100.00
58769;BME280;44536;47.474;19.056;2023-04-01T04:44:40;99074.00;;;8.06;100.00
58769;BME280;44536;47.474;19.056;2023-04-01T04:47:43;99074.50;;;8.21;100.00
58769;BME280;44536;47.474;19.056;2023-04-01T04:50:50;99071.37;;;8.37;100.00
58769;BME280;44536;47.474;19.056;2023-04-01T04:53:53;99075.56;;;8.49;100.00
58769;BME280;44536;47.474;19.056;2023-04-01T04:56:56;99071.03;;;8.60;100.00
58769;BME280;44536;47.474;19.056;2023-04-01T04:59:59;99075.22;;;8.73;100.00
58769;BME280;44536;47.474;19.056;2023-04-01T05:03:03;99083.88;;;8.94;99.70
58769;BME280;44536;47.474;19.056;2023-04-01T05:06:08;99082.22;;;9.12;100.00
58769;BME280;44536;47.474;19.056;2023-04-01T05:09:11;99080.69;;;9.29;100.00
58769;BME280;44536;47.474;19.056;2023-04-01T05:12:14;99074.53;;;9.48;99.35
58769;BME280;44536;47.474;19.056;2023-04-01T05:15:19;99080.25;;;9.53;97.16
58769;BME280;44536;47.474;19.056;2023-04-01T05:18:22;99077.41;;;9.83;93.52
58769;BME280;44536;47.474;19.056;2023-04-01T05:21:24;99082.75;;;10.11;91.84
58769;BME280;44536;47.474;19.056;2023-04-01T05:24:27;99089.72;;;10.94;86.44
58769;BME280;44536;47.474;19.056;2023-04-01T05:27:29;99094.47;;;12.31;77.78
58769;BME280;44536;47.474;19.056;2023-04-01T05:30:32;99098.22;;;12.97;73.49
58769;BME280;44536;47.474;19.056;2023-04-01T05:33:35;99098.31;;;13.37;70.08
58769;BME280;44536;47.474;19.056;2023-04-01T05:36:39;99097.31;;;13.79;67.87
58769;BME280;44536;47.474;19.056;2023-04-01T05:39:42;99102.88;;;14.16;67.71
58769;BME280;44536;47.474;19.056;2023-04-01T05:42:44;99103.00;;;15.40;61.23
58769;BME280;44536;47.474;19.056;2023-04-01T05:45:48;99102.09;;;15.94;58.11
58769;BME280;44536;47.474;19.056;2023-04-01T05:48:54;99111.03;;;16.01;55.97
58769;BME280;44536;47.474;19.056;2023-04-01T05:51:57;99105.38;;;15.81;56.37
58769;BME280;44536;47.474;19.056;2023-04-01T05:55:00;99092.38;;;15.55;56.43
58769;BME280;44536;47.474;19.056;2023-04-01T05:58:03;99088.44;;;15.66;56.06
58769;BME280;44536;47.474;19.056;2023-04-01T06:01:08;99098.25;;;15.50;56.17
58769;BME280;44536;47.474;19.056;2023-04-01T06:04:18;99090.09;;;15.21;56.60
58769;BME280;44536;47.474;19.056;2023-04-01T06:07:20;99101.59;;;14.68;58.45
58769;BME280;44536;47.474;19.056;2023-04-01T06:14:12;99099.97;;;13.71;62.24
58769;BME280;44536;47.474;19.056;2023-04-01T06:35:07;99093.81;;;13.86;61.22
58769;BME280;44536;47.474;19.056;2023-04-01T06:38:25;99104.56;;;14.73;58.29
58769;BME280;44536;47.474;19.056;2023-04-01T06:41:44;99104.06;;;15.54;56.40
58769;BME280;44536;47.474;19.056;2023-04-01T06:45:03;99099.25;;;16.39;53.29
58769;BME280;44536;47.474;19.056;2023-04-01T06:48:42;99108.84;;;16.48;52.63
58769;BME280;44536;47.474;19.056;2023-04-01T06:52:00;99115.69;;;16.51;50.56
58769;BME280;44536;47.474;19.056;2023-04-01T06:55:26;99113.00;;;16.07;51.84
58769;BME280;44536;47.474;19.056;2023-04-01T06:58:40;99127.62;;;17.35;47.97
58769;BME280;44536;47.474;19.056;2023-04-01T07:02:13;99115.03;;;17.50;48.22
58769;BME280;44536;47.474;19.056;2023-04-01T07:05:20;99118.25;;;16.30;50.51
58769;BME280;44536;47.474;19.056;2023-04-01T07:08:27;99108.56;;;16.29;51.93
58769;BME280;44536;47.474;19.056;2023-04-01T07:11:34;99106.16;;;17.50;48.78
58769;BME280;44536;47.474;19.056;2023-04-01T07:14:41;99108.94;;;18.06;46.12
58769;BME280;44536;47.474;19.056;2023-04-01T07:17:50;99113.62;;;19.07;45.02
58769;BME280;44536;47.474;19.056;2023-04-01T07:20:55;99118.81;;;19.15;43.49
58769;BME280;44536;47.474;19.056;2023-04-01T07:24:03;99115.69;;;17.16;47.18
58769;BME280;44536;47.474;19.056;2023-04-01T07:27:12;99118.69;;;17.07;48.56
58769;BME280;44536;47.474;19.056;2023-04-01T07:30:21;99115.06;;;17.14;47.13
58769;BME280;44536;47.474;19.056;2023-04-01T07:36:47;99110.84;;;17.27;48.69
58769;BME280;44536;47.474;19.056;2023-04-01T07:40:16;99117.41;;;16.00;49.99
58769;BME280;44536;47.474;19.056;2023-04-01T07:43:48;99121.44;;;15.04;54.00
58769;BME280;44536;47.474;19.056;2023-04-01T07:50:26;99115.94;;;14.67;55.96
58769;BME280;44536;47.474;19.056;2023-04-01T07:54:18;99114.38;;;14.80;55.08
58769;BME280;44536;47.474;19.056;2023-04-01T07:57:21;99112.13;;;15.00;55.16
58769;BME280;44536;47.474;19.056;2023-04-01T08:01:16;99121.03;;;15.38;54.30
58769;BME280;44536;47.474;19.056;2023-04-01T08:07:39;99123.44;;;15.79;53.64
58769;BME280;44536;47.474;19.056;2023-04-01T08:11:00;99124.97;;;15.73;52.68
58769;BME280;44536;47.474;19.056;2023-04-01T08:14:53;99131.19;;;14.89;54.58
58769;BME280;44536;47.474;19.056;2023-04-01T08:18:24;99137.03;;;14.21;55.46
58769;BME280;44536;47.474;19.056;2023-04-01T08:21:47;99131.38;;;14.16;57.11
58769;BME280;44536;47.474;19.056;2023-04-01T08:24:55;99126.38;;;14.29;57.02
58769;BME280;44536;47.474;19.056;2023-04-01T08:28:19;99140.53;;;14.30;56.27
58769;BME280;44536;47.474;19.056;2023-04-01T08:31:51;99124.72;;;14.20;57.02
58769;BME280;44536;47.474;19.056;2023-04-01T08:35:11;99131.84;;;14.36;57.11
58769;BME280;44536;47.474;19.056;2023-04-01T08:38:34;99128.75;;;15.33;54.42
58769;BME280;44536;47.474;19.056;2023-04-01T09:26:24;99126.03;;;15.64;53.04
58769;BME280;44536;47.474;19.056;2023-04-01T09:29:53;99127.88;;;15.41;53.88
58769;BME280;44536;47.474;19.056;2023-04-01T09:33:37;99127.47;;;14.98;55.75
58769;BME280;44536;47.474;19.056;2023-04-01T09:36:46;99115.09;;;15.05;56.84
58769;BME280;44536;47.474;19.056;2023-04-01T09:40:21;99126.44;;;15.30;54.80
58769;BME280;44536;47.474;19.056;2023-04-01T09:47:21;99127.56;;;14.10;58.29
58769;BME280;44536;47.474;19.056;2023-04-01T09:50:42;99131.72;;;14.05;57.82
58769;BME280;44536;47.474;19.056;2023-04-01T09:53:48;99126.94;;;13.76;59.29
58769;BME280;44536;47.474;19.056;2023-04-01T10:07:49;99134.53;;;14.44;56.93
58769;BME280;44536;47.474;19.056;2023-04-01T10:34:47;99130.19;;;14.43;57.95
58769;BME280;44536;47.474;19.056;2023-04-01T10:42:20;99133.78;;;14.58;56.95
58769;BME280;44536;47.474;19.056;2023-04-01T11:06:17;99124.78;;;15.75;53.14
58769;BME280;44536;47.474;19.056;2023-04-01T11:09:58;99123.41;;;16.02;54.67
58769;BME280;44536;47.474;19.056;2023-04-01T11:37:46;99123.06;;;16.78;48.28
58769;BME280;44536;47.474;19.056;2023-04-01T11:44:16;99123.28;;;15.58;52.13
58769;BME280;44536;47.474;19.056;2023-04-01T11:57:07;99136.56;;;13.52;56.71
58769;BME280;44536;47.474;19.056;2023-04-01T12:07:21;99129.28;;;13.79;55.30
58769;BME280;44536;47.474;19.056;2023-04-01T12:11:04;99122.94;;;13.96;55.63
58769;BME280;44536;47.474;19.056;2023-04-01T12:14:27;99128.22;;;14.12;55.12
58769;BME280;44536;47.474;19.056;2023-04-01T12:17:46;99130.03;;;14.20;54.97
58769;BME280;44536;47.474;19.056;2023-04-01T12:21:03;99125.28;;;14.63;53.91
58769;BME280;44536;47.474;19.056;2023-04-01T12:28:03;99136.81;;;15.25;51.87
58769;BME280;44536;47.474;19.056;2023-04-01T12:45:31;99136.34;;;15.21;51.48
58769;BME280;44536;47.474;19.056;2023-04-01T12:52:37;99132.22;;;15.11;52.35
58769;BME280;44536;47.474;19.056;2023-04-01T12:55:42;99117.66;;;15.44;52.24
58769;BME280;44536;47.474;19.056;2023-04-01T13:02:11;99123.59;;;15.54;51.47
58769;BME280;44536;47.474;19.056;2023-04-01T13:15:28;99114.84;;;16.06;49.51
58769;BME280;44536;47.474;19.056;2023-04-01T13:21:57;99111.59;;;15.59;50.41
58769;BME280;44536;47.474;19.056;2023-04-01T13:25:23;99116.13;;;15.73;49.04
58769;BME280;44536;47.474;19.056;2023-04-01T13:28:53;99108.63;;;15.22;50.84
58769;BME280;44536;47.474;19.056;2023-04-01T13:42:04;99109.81;;;15.20;52.47
58769;BME280;44536;47.474;19.056;2023-04-01T13:48:57;99123.28;;;15.27;51.13
58769;BME280;44536;47.474;19.056;2023-04-01T13:52:23;99123.84;;;15.14;51.23
58769;BME280;44536;47.474;19.056;2023-04-01T13:58:43;99127.19;;;15.16;51.47
58769;BME280;44536;47.474;19.056;2023-04-01T14:01:57;99137.72;;;14.78;51.68
58769;BME280;44536;47.474;19.056;2023-04-01T14:08:57;99144.84;;;14.31;53.50
58769;BME280;44536;47.474;19.056;2023-04-01T14:15:33;99148.97;;;14.57;54.67
58769;BME280;44536;47.474;19.056;2023-04-01T14:19:03;99143.81;;;14.56;53.60
58769;BME280;44536;47.474;19.056;2023-04-01T14:29:31;99127.84;;;14.32;54.64
58769;BME280;44536;47.474;19.056;2023-04-01T14:46:14;99118.41;;;14.68;53.53
58769;BME280;44536;47.474;19.056;2023-04-01T14:50:23;99118.59;;;15.06;52.79
58769;BME280;44536;47.474;19.056;2023-04-01T14:52:59;99125.31;;;15.47;51.28
58769;BME280;44536;47.474;19.056;2023-04-01T14:56:03;99124.63;;;15.53;51.20
58769;BME280;44536;47.474;19.056;2023-04-01T14:59:10;99118.03;;;15.64;50.89
58769;BME280;44536;47.474;19.056;2023-04-01T15:05:52;99119.59;;;15.96;49.26
58769;BME280;44536;47.474;19.056;2023-04-01T15:12:55;99125.03;;;15.65;50.54
58769;BME280;44536;47.474;19.056;2023-04-01T15:40:22;99118.66;;;15.89;52.75
58769;BME280;44536;47.474;19.056;2023-04-01T15:43:54;99137.91;;;15.84;50.93
58769;BME280;44536;47.474;19.056;2023-04-01T15:46:57;99136.91;;;15.63;50.85
58769;BME280;44536;47.474;19.056;2023-04-01T16:00:23;99147.34;;;15.49;51.32
58769;BME280;44536;47.474;19.056;2023-04-01T16:06:57;99144.44;;;15.36;48.50
58769;BME280;44536;47.474;19.056;2023-04-01T16:27:33;99160.41;;;14.82;49.15
58769;BME280;44536;47.474;19.056;2023-04-01T16:30:45;99159.06;;;14.78;49.08
58769;BME280;44536;47.474;19.056;2023-04-01T16:37:17;99168.75;;;14.79;50.86
58769;BME280;44536;47.474;19.056;2023-04-01T16:43:57;99174.34;;;14.53;48.93
58769;BME280;44536;47.474;19.056;2023-04-01T16:47:12;99175.34;;;14.36;50.14
58769;BME280;44536;47.474;19.056;2023-04-01T16:53:49;99176.19;;;14.20;50.19
58769;BME280;44536;47.474;19.056;2023-04-01T17:00:16;99181.56;;;13.88;50.46
58769;BME280;44536;47.474;19.056;2023-04-01T17:03:28;99181.03;;;13.68;51.74
58769;BME280;44536;47.474;19.056;2023-04-01T17:06:49;99184.53;;;13.44;51.79
58769;BME280;44536;47.474;19.056;2023-04-01T17:13:33;99188.84;;;13.37;52.96
58769;BME280;44536;47.474;19.056;2023-04-01T17:17:01;99189.88;;;13.10;53.79
58769;BME280;44536;47.474;19.056;2023-04-01T17:20:31;99200.69;;;13.09;54.28
58769;BME280;44536;47.474;19.056;2023-04-01T17:23:53;99202.50;;;13.08;54.12
58769;BME280;44536;47.474;19.056;2023-04-01T17:48:18;99216.06;;;12.55;57.09
58769;BME280;44536;47.474;19.056;2023-04-01T17:51:38;99213.72;;;12.52;57.30
58769;BME280;44536;47.474;19.056;2023-04-01T17:54:47;99216.03;;;12.47;57.94
58769;BME280;44536;47.474;19.056;2023-04-01T17:58:17;99223.37;;;12.27;58.07
58769;BME280;44536;47.474;19.056;2023-04-01T18:01:36;99228.47;;;12.03;58.98
58769;BME280;44536;47.474;19.056;2023-04-01T18:12:28;99251.06;;;11.71;61.08
58769;BME280;44536;47.474;19.056;2023-04-01T18:16:09;99251.63;;;11.75;61.27
58769;BME280;44536;47.474;19.056;2023-04-01T18:25:43;99268.38;;;11.75;62.10
58769;BME280;44536;47.474;19.056;2023-04-01T18:28:55;99268.66;;;11.54;63.36
58769;BME280;44536;47.474;19.056;2023-04-01T18:38:34;99270.75;;;11.33;65.11
58769;BME280;44536;47.474;19.056;2023-04-01T18:41:56;99281.47;;;11.41;64.74
58769;BME280;44536;47.474;19.056;2023-04-01T18:45:32;99291.09;;;11.42;65.29
58769;BME280;44536;47.474;19.056;2023-04-01T18:48:53;99287.81;;;11.48;64.71
58769;BME280;44536;47.474;19.056;2023-04-01T18:52:10;99290.03;;;11.53;64.26
58769;BME280;44536;47.474;19.056;2023-04-01T18:58:48;99299.22;;;11.58;64.08
58769;BME280;44536;47.474;19.056;2023-04-01T19:05:19;99295.66;;;11.22;66.46
58769;BME280;44536;47.474;19.056;2023-04-01T19:08:35;99294.59;;;11.06;68.35
58769;BME280;44536;47.474;19.056;2023-04-01T19:18:32;99294.41;;;10.89;68.27
58769;BME280;44536;47.474;19.056;2023-04-01T19:21:53;99294.94;;;10.93;68.59
58769;BME280;44536;47.474;19.056;2023-04-01T19:32:11;99302.06;;;10.92;67.83
58769;BME280;44536;47.474;19.056;2023-04-01T19:35:27;99302.75;;;10.94;68.63
58769;BME280;44536;47.474;19.056;2023-04-01T19:38:38;99305.84;;;11.27;66.68
58769;BME280;44536;47.474;19.056;2023-04-01T19:42:05;99308.16;;;11.40;66.35
58769;BME280;44536;47.474;19.056;2023-04-01T19:45:31;99312.69;;;11.47;65.87
58769;BME280;44536;47.474;19.056;2023-04-01T19:48:53;99311.81;;;11.39;66.07
58769;BME280;44536;47.474;19.056;2023-04-01T19:52:27;99317.69;;;10.95;68.75
58769;BME280;44536;47.474;19.056;2023-04-01T19:55:48;99325.72;;;10.67;70.09
58769;BME280;44536;47.474;19.056;2023-04-01T19:59:10;99329.78;;;10.42;71.67
58769;BME280;44536;47.474;19.056;2023-04-01T20:02:48;99318.25;;;10.23;72.82
58769;BME280;44536;47.474;19.056;2023-04-01T20:06:33;99324.19;;;10.06;73.44
58769;BME280;44536;47.474;19.056;2023-04-01T20:09:53;99328.50;;;9.88;75.05
58769;BME280;44536;47.474;19.056;2023-04-01T20:16:12;99329.84;;;9.63;76.82
58769;BME280;44536;47.474;19.056;2023-04-01T20:19:26;99328.84;;;9.54;77.70
58769;BME280;44536;47.474;19.056;2023-04-01T20:22:59;99333.53;;;9.41;78.39
58769;BME280;44536;47.474;19.056;2023-04-01T20:26:08;99331.59;;;9.34;79.59
58769;BME280;44536;47.474;19.056;2023-04-01T20:36:31;99330.81;;;9.12;80.98
58769;BME280;44536;47.474;19.056;2023-04-01T20:43:20;99339.34;;;8.95;83.15
58769;BME280;44536;47.474;19.056;2023-04-01T20:49:41;99340.78;;;8.78;84.78
58769;BME280;44536;47.474;19.056;2023-04-01T20:53:07;99350.91;;;8.73;85.30
58769;BME280;44536;47.474;19.056;2023-04-01T21:02:54;99365.09;;;8.72;86.68
58769;BME280;44536;47.474;19.056;2023-04-01T21:13:06;99369.84;;;8.57;87.81
58769;BME280;44536;47.474;19.056;2023-04-01T21:16:47;99362.44;;;8.51;87.42
58769;BME280;44536;47.474;19.056;2023-04-01T21:20:05;99357.66;;;8.45;87.93
58769;BME280;44536;47.474;19.056;2023-04-01T21:23:23;99362.75;;;8.37;89.08
58769;BME280;44536;47.474;19.056;2023-04-01T21:26:34;99367.69;;;8.30;90.06
58769;BME280;44536;47.474;19.056;2023-04-01T21:33:33;99372.28;;;8.17;91.85
58769;BME280;44536;47.474;19.056;2023-04-01T21:53:49;99386.75;;;8.34;89.89
58769;BME280;44536;47.474;19.056;2023-04-01T22:13:26;99394.09;;;8.30;89.30
58769;BME280;44536;47.474;19.056;2023-04-01T22:16:44;99392.91;;;8.23;89.88
58769;BME280;44536;47.474;19.056;2023-04-01T22:19:59;99393.41;;;8.17;89.66
58769;BME280;44536;47.474;19.056;2023-04-01T22:26:35;99400.84;;;8.23;86.95
58769;BME280;44536;47.474;19.056;2023-04-01T22:29:58;99398.97;;;8.46;85.86
58769;BME280;44536;47.474;19.056;2023-04-01T22:33:16;99409.16;;;8.51;85.73
58769;BME280;44536;47.474;19.056;2023-04-01T22:43:04;99423.66;;;8.56;85.98
58769;BME280;44536;47.474;19.056;2023-04-01T22:49:43;99421.44;;;8.41;85.60
58769;BME280;44536;47.474;19.056;2023-04-01T22:52:55;99419.75;;;8.40;85.89
58769;BME280;44536;47.474;19.056;2023-04-01T22:56:05;99418.94;;;8.39;86.49
58769;BME280;44536;47.474;19.056;2023-04-01T22:59:20;99421.16;;;8.55;85.65
58769;BME280;44536;47.474;19.056;2023-04-01T23:02:30;99431.16;;;8.93;84.02
58769;BME280;44536;47.474;19.056;2023-04-01T23:05:43;99432.00;;;9.35;82.03
58769;BME280;44536;47.474;19.056;2023-04-01T23:12:02;99444.44;;;9.84;79.15
58769;BME280;44536;47.474;19.056;2023-04-01T23:15:13;99447.31;;;9.72;79.78
58769;BME280;44536;47.474;19.056;2023-04-01T23:18:32;99448.97;;;9.63;80.40
58769;BME280;44536;47.474;19.056;2023-04-01T23:21:44;99445.22;;;9.66;80.34
58769;BME280;44536;47.474;19.056;2023-04-01T23:24:55;99448.91;;;9.53;80.95
58769;BME280;44536;47.474;19.056;2023-04-01T23:31:36;99451.69;;;9.52;81.13
58769;BME280;44536;47.474;19.056;2023-04-01T23:34:39;99447.41;;;9.60;80.75
58769;BME280;44536;47.474;19.056;2023-04-01T23:37:47;99452.87;;;9.38;82.07
58769;BME280;44536;47.474;19.056;2023-04-01T23:40:52;99455.09;;;9.33;82.41
58769;BME280;44536;47.474;19.056;2023-04-01T23:44:00;99453.69;;;9.29;82.20
58769;BME280;44536;47.474;19.056;2023-04-01T23:47:04;99470.31;;;9.20;82.41
58769;BME280;44536;47.474;19.056;2023-04-01T23:50:17;99464.06;;;9.21;82.38
58769;BME280;44536;47.474;19.056;2023-04-01T23:53:24;99481.22;;;9.06;82.98
58769;BME280;44536;47.474;19.056;2023-04-01T23:56:46;99482.25;;;8.93;83.33
